createdAt,value
2022-07-25T00:01:57.064Z,3.97
2022-07-25T00:04:25.724Z,4.03
2022-07-25T00:06:53.363Z,5.93
2022-07-25T00:09:20.820Z,6.22
2022-07-25T00:11:48.365Z,5.70
2022-07-25T00:14:15.886Z,6.30
2022-07-25T00:16:43.371Z,5.47
2022-07-25T00:19:11.809Z,4.65
2022-07-25T00:21:39.307Z,4.63
2022-07-25T00:24:07.355Z,9.65
2022-07-25T00:26:39.762Z,5.70
2022-07-25T00:29:07.876Z,7.72
2022-07-25T00:31:35.471Z,4.93
2022-07-25T00:34:04.153Z,6.57
2022-07-25T00:36:31.867Z,4.13
2022-07-25T00:38:59.377Z,7.38
2022-07-25T00:41:27.045Z,7.25
2022-07-25T00:43:54.605Z,6.55
2022-07-25T00:46:22.203Z,8.18
2022-07-25T00:48:51.521Z,7.45
2022-07-25T00:51:19.461Z,5.90
2022-07-25T00:53:47.093Z,5.40
2022-07-25T00:56:14.693Z,5.85
2022-07-25T00:58:42.178Z,6.85
2022-07-25T01:01:09.737Z,5.18
2022-07-25T01:03:37.317Z,5.97
2022-07-25T01:06:04.998Z,8.40
2022-07-25T01:08:33.418Z,7.50
2022-07-25T01:11:00.929Z,5.28
2022-07-25T01:13:28.409Z,7.07
2022-07-25T01:15:55.977Z,5.60
2022-07-25T01:18:23.470Z,6.82
2022-07-25T01:20:51.052Z,8.38
2022-07-25T01:23:18.603Z,8.10
2022-07-25T01:25:46.088Z,4.72
2022-07-25T01:28:13.679Z,7.28
2022-07-25T01:30:41.387Z,6.07
2022-07-25T01:33:08.923Z,6.60
2022-07-25T01:35:41.517Z,8.63
2022-07-25T01:38:10.955Z,4.97
2022-07-25T01:40:38.460Z,4.47
2022-07-25T01:43:06.339Z,12.93
2022-07-25T01:45:34.558Z,4.78
2022-07-25T01:48:02.065Z,5.03
2022-07-25T01:50:29.637Z,8.98
2022-07-25T01:52:57.528Z,6.25
2022-07-25T01:55:25.078Z,3.95
2022-07-25T01:57:53.975Z,12.80
2022-07-25T02:00:21.442Z,5.28
2022-07-25T02:02:49.052Z,4.22
2022-07-25T02:05:16.930Z,9.27
2022-07-25T02:07:44.450Z,6.97
2022-07-25T02:10:12.071Z,5.95
2022-07-25T02:12:39.598Z,5.97
2022-07-25T02:15:07.783Z,10.75
2022-07-25T02:17:35.272Z,6.70
2022-07-25T02:20:02.854Z,5.93
2022-07-25T02:22:30.354Z,8.68
2022-07-25T02:24:57.829Z,8.20
2022-07-25T02:27:25.321Z,6.40
2022-07-25T02:29:52.821Z,8.45
2022-07-25T02:32:20.317Z,6.65
2022-07-25T02:34:47.817Z,8.27
2022-07-25T02:37:15.365Z,7.28
2022-07-25T02:39:42.892Z,5.38
2022-07-25T02:42:10.450Z,7.10
2022-07-25T02:44:37.946Z,8.20
2022-07-25T02:47:05.451Z,8.38
2022-07-25T02:49:32.956Z,6.95
2022-07-25T02:52:00.394Z,11.65
2022-07-25T02:54:27.876Z,7.45
2022-07-25T02:56:55.603Z,10.65
2022-07-25T02:59:23.103Z,10.15
2022-07-25T03:01:50.760Z,7.72
2022-07-25T03:04:18.431Z,7.85
2022-07-25T03:06:47.454Z,8.35
2022-07-25T03:09:14.981Z,8.02
2022-07-25T03:11:42.503Z,9.43
2022-07-25T03:14:10.385Z,13.32
2022-07-25T03:16:38.165Z,7.45
2022-07-25T03:19:10.266Z,6.70
2022-07-25T03:21:40.279Z,6.57
2022-07-25T03:24:08.242Z,7.35
2022-07-25T03:26:36.060Z,7.65
2022-07-25T03:29:04.194Z,9.07
2022-07-25T03:31:31.712Z,7.43
2022-07-25T03:33:59.182Z,7.55
2022-07-25T03:36:26.679Z,8.27
2022-07-25T03:38:55.830Z,8.82
2022-07-25T03:41:23.542Z,8.55
2022-07-25T03:43:54.767Z,10.02
2022-07-25T03:46:22.319Z,11.07
2022-07-25T03:48:49.884Z,8.30
2022-07-25T03:51:17.484Z,12.07
2022-07-25T03:54:03.635Z,9.23
2022-07-25T03:56:43.247Z,9.30
2022-07-25T03:59:12.931Z,8.73
2022-07-25T04:01:40.715Z,10.10
2022-07-25T04:04:08.881Z,8.48
2022-07-25T04:06:37.027Z,11.25
2022-07-25T04:09:05.069Z,10.57
2022-07-25T04:11:32.771Z,10.52
2022-07-25T04:14:00.274Z,9.23
2022-07-25T04:16:28.103Z,12.15
2022-07-25T04:18:57.298Z,8.02
2022-07-25T04:21:25.887Z,10.43
2022-07-25T04:23:54.219Z,14.13
2022-07-25T04:26:21.730Z,7.97
2022-07-25T04:28:49.622Z,9.55
2022-07-25T04:31:17.609Z,8.85
2022-07-25T04:33:45.275Z,7.70
2022-07-25T04:36:13.319Z,10.25
2022-07-25T04:38:41.091Z,8.50
2022-07-25T04:41:08.671Z,13.48
2022-07-25T04:43:36.175Z,8.68
2022-07-25T04:46:04.071Z,7.75
2022-07-25T04:48:31.634Z,13.68
2022-07-25T04:50:59.221Z,11.00
2022-07-25T04:53:26.720Z,7.70
2022-07-25T04:55:54.245Z,9.82
2022-07-25T04:58:21.715Z,8.68
2022-07-25T05:00:49.374Z,10.65
2022-07-25T05:03:17.026Z,10.32
2022-07-25T05:05:44.555Z,8.20
2022-07-25T05:08:12.119Z,12.00
2022-07-25T05:10:39.699Z,9.05
2022-07-25T05:13:07.271Z,9.70
2022-07-25T05:15:34.826Z,10.68
2022-07-25T05:18:02.315Z,9.98
2022-07-25T05:20:30.214Z,10.90
2022-07-25T05:22:57.801Z,10.45
2022-07-25T05:25:25.363Z,15.07
2022-07-25T05:27:57.412Z,16.63
2022-07-25T05:30:25.278Z,10.88
2022-07-25T05:32:52.780Z,9.68
2022-07-25T05:35:20.326Z,13.60
2022-07-25T05:37:48.515Z,12.40
2022-07-25T05:40:16.032Z,11.73
2022-07-25T05:42:43.568Z,15.27
2022-07-25T05:45:11.245Z,12.20
2022-07-25T05:47:38.807Z,9.63
2022-07-25T05:50:07.784Z,11.25
2022-07-25T05:52:35.278Z,11.35
2022-07-25T05:55:02.897Z,10.23
2022-07-25T05:57:30.460Z,10.43
2022-07-25T05:59:57.961Z,8.88
2022-07-25T06:02:25.648Z,10.57
2022-07-25T06:04:53.374Z,11.70
2022-07-25T06:07:20.845Z,9.00
2022-07-25T06:09:48.342Z,7.50
2022-07-25T06:12:15.860Z,5.00
2022-07-25T06:14:43.538Z,6.07
2022-07-25T06:17:11.106Z,5.93
2022-07-25T06:19:38.756Z,8.07
2022-07-25T06:22:08.086Z,5.57
2022-07-25T06:24:36.186Z,4.15
2022-07-25T06:27:03.743Z,4.97
2022-07-25T06:29:31.241Z,3.83
2022-07-25T06:31:58.795Z,4.93
2022-07-25T06:34:28.774Z,7.22
2022-07-25T06:36:57.471Z,5.07
2022-07-25T06:39:26.047Z,2.72
2022-07-25T06:41:53.639Z,4.18
2022-07-25T06:44:21.131Z,3.75
2022-07-25T06:46:48.680Z,3.28
2022-07-25T06:49:17.843Z,2.90
2022-07-25T06:51:45.340Z,4.10
2022-07-25T06:54:13.747Z,2.78
2022-07-25T06:56:41.194Z,3.55
2022-07-25T06:59:08.683Z,4.10
2022-07-25T07:01:36.444Z,2.22
2022-07-25T07:04:05.280Z,4.47
2022-07-25T07:06:32.987Z,4.60
2022-07-25T07:09:00.525Z,3.15
2022-07-25T07:11:28.518Z,5.40
2022-07-25T07:13:56.090Z,6.95
2022-07-25T07:16:23.609Z,5.45
2022-07-25T07:18:51.149Z,3.20
2022-07-25T07:21:21.346Z,5.47
2022-07-25T07:23:49.659Z,3.53
2022-07-25T07:28:48.560Z,1.92
2022-07-25T07:31:18.798Z,4.90
2022-07-25T07:33:46.760Z,3.55
2022-07-25T07:36:14.349Z,2.88
2022-07-25T07:38:41.982Z,2.90
2022-07-25T07:41:09.534Z,3.22
2022-07-25T07:43:37.329Z,3.97
2022-07-25T07:46:05.048Z,3.28
2022-07-25T07:48:33.915Z,2.63
2022-07-25T07:51:02.989Z,2.75
2022-07-25T07:53:44.733Z,2.05
